createdAt,value
2017-10-25T00:01:48.864Z,101151.41
2017-10-25T00:04:16.332Z,101147.66
2017-10-25T00:06:43.808Z,101145.69
2017-10-25T00:09:11.288Z,101140.80
2017-10-25T00:11:38.749Z,101140.36
2017-10-25T00:14:06.237Z,101139.81
2017-10-25T00:16:33.824Z,101137.81
2017-10-25T00:19:01.322Z,101132.33
2017-10-25T00:21:28.780Z,101130.47
2017-10-25T00:23:56.272Z,101128.89
2017-10-25T00:26:23.732Z,101134.08
2017-10-25T00:28:51.284Z,101134.28
2017-10-25T00:31:18.847Z,101130.19
2017-10-25T00:33:46.312Z,101125.91
2017-10-25T00:36:13.863Z,101128.67
2017-10-25T00:38:41.432Z,101132.83
2017-10-25T00:41:08.898Z,101135.94
2017-10-25T00:43:36.360Z,101136.22
2017-10-25T00:46:03.843Z,101134.49
2017-10-25T00:48:31.313Z,101140.70
2017-10-25T00:50:58.903Z,101138.84
2017-10-25T00:53:26.467Z,101141.71
2017-10-25T00:55:54.020Z,101139.98
2017-10-25T00:58:21.578Z,101143.59
2017-10-25T01:00:49.056Z,101142.77
2017-10-25T01:03:16.520Z,101139.98
2017-10-25T01:05:44.059Z,101141.37
2017-10-25T01:08:11.506Z,101149.77
2017-10-25T01:10:38.992Z,101142.33
2017-10-25T01:13:06.521Z,101145.06
2017-10-25T01:15:34.075Z,101139.98
2017-10-25T01:18:01.539Z,101141.86
2017-10-25T01:20:29.010Z,101141.78
2017-10-25T01:22:56.450Z,101140.91
2017-10-25T01:25:23.927Z,101141.27
2017-10-25T01:27:51.409Z,101138.92
2017-10-25T01:30:18.884Z,101138.56
2017-10-25T01:32:46.335Z,101134.71
2017-10-25T01:35:13.840Z,101134.55
2017-10-25T01:37:41.324Z,101133.06
2017-10-25T01:40:08.779Z,101131.97
2017-10-25T01:42:36.305Z,101122.66
2017-10-25T01:45:03.750Z,101124.69
2017-10-25T01:47:31.235Z,101121.13
2017-10-25T01:49:58.688Z,101125.72
2017-10-25T01:52:26.180Z,101116.13
2017-10-25T01:54:53.675Z,101116.02
2017-10-25T01:57:21.155Z,101114.71
2017-10-25T01:59:48.623Z,101106.44
2017-10-25T02:02:16.123Z,101114.93
2017-10-25T02:04:43.569Z,101103.50
2017-10-25T02:07:11.052Z,101100.77
2017-10-25T02:09:41.905Z,101101.13
2017-10-25T02:12:09.383Z,101092.85
2017-10-25T02:14:36.917Z,101093.23
2017-10-25T02:17:04.396Z,101091.20
2017-10-25T02:19:31.872Z,101090.39
2017-10-25T02:21:59.360Z,101097.98
2017-10-25T02:24:26.824Z,101088.25
2017-10-25T02:26:54.319Z,101089.91
2017-10-25T02:29:21.772Z,101089.98
2017-10-25T02:31:49.286Z,101087.58
2017-10-25T02:34:16.746Z,101083.09
2017-10-25T02:36:44.230Z,101082.47
2017-10-25T02:39:11.700Z,101086.39
2017-10-25T02:41:39.207Z,101086.16
2017-10-25T02:44:06.713Z,101077.43
2017-10-25T02:46:34.274Z,101089.75
2017-10-25T02:49:01.757Z,101083.49
2017-10-25T02:51:29.392Z,101085.44
2017-10-25T02:53:56.845Z,101093.69
2017-10-25T02:56:24.352Z,101088.73
2017-10-25T02:58:51.805Z,101083.95
2017-10-25T03:01:19.293Z,101087.63
2017-10-25T03:03:46.743Z,101093.03
2017-10-25T03:06:14.201Z,101087.08
2017-10-25T03:08:41.670Z,101082.67
2017-10-25T03:11:09.124Z,101076.00
2017-10-25T03:13:36.607Z,101077.87
2017-10-25T03:16:04.077Z,101076.88
2017-10-25T03:18:31.558Z,101086.26
2017-10-25T03:20:59.025Z,101082.09
2017-10-25T03:23:26.497Z,101078.42
2017-10-25T03:25:53.985Z,101069.95
2017-10-25T03:28:21.499Z,101067.62
2017-10-25T03:30:48.961Z,101062.91
2017-10-25T03:33:16.439Z,101060.86
2017-10-25T03:35:43.898Z,101062.93
2017-10-25T03:38:11.391Z,101064.27
2017-10-25T03:40:38.847Z,101059.61
2017-10-25T03:43:06.368Z,101066.16
2017-10-25T03:45:33.863Z,101074.48
2017-10-25T03:48:01.340Z,101069.28
2017-10-25T03:50:28.816Z,101072.22
2017-10-25T03:52:56.329Z,101071.17
2017-10-25T03:55:23.773Z,101063.80
2017-10-25T03:57:51.256Z,101064.09
2017-10-25T04:00:18.789Z,101052.97
2017-10-25T04:02:46.329Z,101058.16
2017-10-25T04:05:13.779Z,101059.47
2017-10-25T04:07:41.360Z,101047.47
2017-10-25T04:10:08.919Z,101050.09
2017-10-25T04:12:36.405Z,101044.53
2017-10-25T04:15:03.850Z,101050.81
2017-10-25T04:17:31.412Z,101066.74
2017-10-25T04:19:58.962Z,101064.97
2017-10-25T04:22:26.439Z,101059.58
2017-10-25T04:24:53.889Z,101058.67
2017-10-25T04:27:21.399Z,101059.09
2017-10-25T04:29:48.871Z,101057.14
2017-10-25T04:32:16.323Z,101049.30
2017-10-25T04:34:43.807Z,101047.98
2017-10-25T04:37:11.272Z,101054.89
2017-10-25T04:39:38.752Z,101051.34
2017-10-25T04:42:06.208Z,101056.55
2017-10-25T04:44:33.691Z,101060.72
2017-10-25T04:47:01.173Z,101058.67
2017-10-25T04:49:28.659Z,101056.43
2017-10-25T04:51:56.111Z,101051.72
2017-10-25T04:54:23.645Z,101057.16
2017-10-25T04:56:51.199Z,101056.58
2017-10-25T04:59:18.676Z,101050.06
2017-10-25T05:01:46.131Z,101046.02
2017-10-25T05:04:13.635Z,101041.84
2017-10-25T05:06:41.187Z,101031.80
2017-10-25T05:09:08.657Z,101036.31
2017-10-25T05:11:36.138Z,101032.50
2017-10-25T05:14:03.620Z,101025.12
2017-10-25T05:16:31.074Z,101030.42
2017-10-25T05:18:58.579Z,101033.02
2017-10-25T05:21:26.059Z,101037.89
2017-10-25T05:23:53.572Z,101032.81
2017-10-25T05:26:21.044Z,101033.05
2017-10-25T05:28:48.540Z,101034.30
2017-10-25T05:31:15.996Z,101031.33
2017-10-25T05:33:43.460Z,101026.52
2017-10-25T05:36:11.044Z,101026.09
2017-10-25T05:38:38.503Z,101034.80
2017-10-25T05:41:05.980Z,101029.17
2017-10-25T05:43:33.491Z,101041.70
2017-10-25T05:46:00.972Z,101033.89
2017-10-25T05:48:28.469Z,101029.30
2017-10-25T05:50:55.956Z,101027.72
2017-10-25T05:53:23.405Z,101023.00
2017-10-25T05:55:50.893Z,101022.09
2017-10-25T05:58:18.332Z,101025.62
2017-10-25T06:00:45.826Z,101029.43
2017-10-25T06:03:13.353Z,101031.62
2017-10-25T06:05:40.908Z,101034.98
2017-10-25T06:08:08.387Z,101042.70
2017-10-25T06:10:35.955Z,101041.59
2017-10-25T06:13:03.504Z,101052.52
2017-10-25T06:15:31.003Z,101048.70
2017-10-25T06:17:58.459Z,101057.65
2017-10-25T06:20:25.936Z,101063.00
2017-10-25T06:22:53.395Z,101056.45
2017-10-25T06:25:20.907Z,101058.12
2017-10-25T06:27:48.404Z,101059.66
2017-10-25T06:30:15.878Z,101061.14
2017-10-25T06:32:43.333Z,101065.91
2017-10-25T06:35:10.896Z,101068.47
2017-10-25T06:37:38.356Z,101069.34
2017-10-25T06:40:05.822Z,101075.19
2017-10-25T06:42:33.317Z,101076.47
2017-10-25T06:45:00.824Z,101077.66
2017-10-25T06:47:28.328Z,101075.04
2017-10-25T06:49:55.836Z,101077.28
2017-10-25T06:52:23.308Z,101077.55
2017-10-25T06:54:50.884Z,101073.59
2017-10-25T06:57:18.416Z,101074.48
2017-10-25T06:59:45.864Z,101073.50
2017-10-25T07:02:14.176Z,101069.48
2017-10-25T07:04:41.632Z,101062.09
2017-10-25T07:07:09.112Z,101062.23
2017-10-25T07:09:36.567Z,101058.47
2017-10-25T07:12:04.029Z,101052.73
2017-10-25T07:14:31.480Z,101063.59
2017-10-25T07:16:58.927Z,101064.23
2017-10-25T07:19:26.409Z,101058.35
2017-10-25T07:21:53.847Z,101062.97
2017-10-25T07:24:21.306Z,101066.90
2017-10-25T07:26:48.753Z,101072.97
2017-10-25T07:29:16.226Z,101079.39
2017-10-25T07:31:43.683Z,101083.84
2017-10-25T07:34:11.184Z,101087.73
2017-10-25T07:36:38.627Z,101094.81
2017-10-25T07:39:06.109Z,101105.16
2017-10-25T07:41:33.564Z,101106.22
2017-10-25T07:44:01.051Z,101099.58
2017-10-25T07:46:28.498Z,101098.98
2017-10-25T07:48:55.963Z,101097.21
2017-10-25T07:51:23.482Z,101093.88
2017-10-25T07:53:51.042Z,101098.98
2017-10-25T07:56:18.497Z,101113.25
2017-10-25T07:58:45.977Z,101111.97
2017-10-25T08:01:13.428Z,101121.41
2017-10-25T08:03:40.984Z,101116.80
2017-10-25T08:06:08.433Z,101114.48
2017-10-25T08:08:35.942Z,101110.06
2017-10-25T08:11:03.446Z,101110.52
2017-10-25T08:13:30.932Z,101108.46
2017-10-25T08:15:58.396Z,101099.98
2017-10-25T08:18:25.920Z,101105.51
2017-10-25T08:20:53.470Z,101109.44
2017-10-25T08:23:20.924Z,101120.30
2017-10-25T08:25:48.401Z,101122.63
2017-10-25T08:28:15.944Z,101119.77
2017-10-25T08:30:43.501Z,101120.20
2017-10-25T08:33:10.972Z,101114.89
2017-10-25T08:35:38.516Z,101106.06
2017-10-25T08:38:05.965Z,101093.02
2017-10-25T08:40:33.453Z,101103.59
2017-10-25T08:43:00.941Z,101103.98
2017-10-25T08:45:28.424Z,101099.77
2017-10-25T08:47:55.893Z,101099.19
2017-10-25T08:50:23.375Z,101102.66
2017-10-25T08:52:50.884Z,101098.56
2017-10-25T08:55:18.352Z,101096.83
2017-10-25T08:57:45.804Z,101091.13
2017-10-25T09:00:13.281Z,101095.79
2017-10-25T09:02:40.710Z,101100.19
2017-10-25T09:05:08.154Z,101102.53
2017-10-25T09:07:35.613Z,101119.42
2017-10-25T09:10:03.070Z,101106.83
2017-10-25T09:12:30.541Z,101107.44
2017-10-25T09:14:58.010Z,101105.56
2017-10-25T09:17:25.483Z,101092.38
2017-10-25T09:19:52.939Z,101093.18
2017-10-25T09:22:20.412Z,101090.09
2017-10-25T09:24:47.872Z,101102.18
2017-10-25T09:27:15.409Z,101098.05
2017-10-25T09:29:42.964Z,101100.30
2017-10-25T09:32:10.446Z,101092.96
2017-10-25T09:34:37.900Z,101088.31
2017-10-25T09:37:05.389Z,101079.59
2017-10-25T09:39:32.897Z,101089.84
2017-10-25T09:42:00.343Z,101081.75
2017-10-25T09:44:27.923Z,101081.70
2017-10-25T09:46:55.491Z,101086.66
2017-10-25T09:49:23.030Z,101088.45
2017-10-25T09:51:50.470Z,101100.91
2017-10-25T09:54:17.981Z,101092.63
2017-10-25T09:56:45.504Z,101095.39
2017-10-25T09:59:12.961Z,101093.16
2017-10-25T10:01:40.540Z,101086.18
2017-10-25T10:04:08.026Z,101096.72
2017-10-25T10:06:35.477Z,101093.06
2017-10-25T10:09:02.956Z,101089.67
2017-10-25T10:11:30.447Z,101083.89
2017-10-25T10:13:57.916Z,101093.23
2017-10-25T10:16:25.364Z,101095.17
2017-10-25T10:18:52.840Z,101101.78
2017-10-25T10:21:20.290Z,101102.46
2017-10-25T10:23:47.830Z,101102.05
2017-10-25T10:26:15.390Z,101100.09
2017-10-25T10:28:42.845Z,101093.16
2017-10-25T10:31:10.316Z,101094.02
2017-10-25T10:33:37.771Z,101088.63
2017-10-25T10:36:05.330Z,101077.55
2017-10-25T10:38:32.804Z,101080.86
2017-10-25T10:41:00.318Z,101079.25
2017-10-25T10:43:27.780Z,101074.98
2017-10-25T10:45:55.256Z,101077.41
2017-10-25T10:48:22.690Z,101078.59
2017-10-25T10:50:50.146Z,101072.67
2017-10-25T10:53:17.600Z,101070.45
2017-10-25T10:55:45.174Z,101057.95
2017-10-25T10:58:12.647Z,101065.75
2017-10-25T11:00:40.144Z,101057.25
2017-10-25T11:03:07.611Z,101062.75
2017-10-25T11:05:35.091Z,101056.26
2017-10-25T11:08:02.543Z,101054.17
2017-10-25T11:10:30.120Z,101059.41
2017-10-25T11:12:57.584Z,101049.67
2017-10-25T11:15:25.096Z,101050.34
2017-10-25T11:17:52.544Z,101047.36
2017-10-25T11:20:20.048Z,101043.16
2017-10-25T11:22:47.544Z,101044.52
2017-10-25T11:25:15.024Z,101045.12
2017-10-25T11:27:42.476Z,101039.85
2017-10-25T11:30:09.978Z,101038.22
2017-10-25T11:32:37.440Z,101037.06
2017-10-25T11:35:04.888Z,101031.39
2017-10-25T11:37:32.375Z,101025.67
2017-10-25T11:39:59.852Z,101027.70
2017-10-25T11:42:27.329Z,101028.56
2017-10-25T11:44:54.801Z,101034.87
2017-10-25T11:47:22.374Z,101030.91
2017-10-25T11:49:49.827Z,101037.77
2017-10-25T11:52:17.337Z,101037.13
2017-10-25T11:54:44.769Z,101021.46
2017-10-25T11:57:12.313Z,101018.08
2017-10-25T11:59:39.768Z,101007.58
2017-10-25T12:02:07.236Z,101014.32
2017-10-25T12:04:34.674Z,101010.59
2017-10-25T12:07:02.240Z,101014.97
2017-10-25T12:09:29.743Z,101020.30
2017-10-25T12:11:57.456Z,101012.41
2017-10-25T12:14:24.915Z,101014.67
2017-10-25T12:16:52.471Z,101009.32
2017-10-25T12:19:19.924Z,101008.80
2017-10-25T12:21:47.395Z,101011.64
2017-10-25T12:24:14.936Z,101013.27
2017-10-25T12:26:42.428Z,101007.37
2017-10-25T12:29:09.873Z,101005.65
2017-10-25T12:31:37.462Z,101010.14
2017-10-25T12:34:04.924Z,101002.95
2017-10-25T12:36:32.383Z,101002.41
2017-10-25T12:38:59.863Z,101000.02
2017-10-25T12:41:27.315Z,100998.43
2017-10-25T12:43:54.897Z,100999.66
2017-10-25T12:46:22.368Z,101005.12
2017-10-25T12:48:49.839Z,101004.62
2017-10-25T12:51:17.321Z,100998.17
2017-10-25T12:53:44.792Z,100993.26
2017-10-25T12:56:12.238Z,100994.94
2017-10-25T12:58:39.737Z,100996.49
2017-10-25T13:01:07.207Z,100990.11
2017-10-25T13:03:34.705Z,100990.50
2017-10-25T13:06:02.164Z,100987.91
2017-10-25T13:08:29.645Z,100987.09
2017-10-25T13:10:58.071Z,100988.55
2017-10-25T13:13:28.863Z,100989.24
2017-10-25T13:15:57.700Z,100984.05
2017-10-25T13:18:26.126Z,100989.70
2017-10-25T13:20:53.566Z,100985.53
2017-10-25T13:23:21.019Z,100984.72
2017-10-25T13:25:48.491Z,100993.64
2017-10-25T13:28:16.006Z,100997.55
2017-10-25T13:30:43.482Z,100979.11
2017-10-25T13:33:10.988Z,100984.47
2017-10-25T13:35:38.467Z,100986.89
2017-10-25T13:38:05.898Z,100998.33
2017-10-25T13:40:33.461Z,100988.94
2017-10-25T13:43:00.894Z,100988.12
2017-10-25T13:45:28.373Z,100995.09
2017-10-25T13:47:55.947Z,100988.38
2017-10-25T13:50:23.451Z,100992.38
2017-10-25T13:52:50.897Z,100995.82
2017-10-25T13:55:18.371Z,101001.64
2017-10-25T13:57:45.820Z,101000.46
2017-10-25T14:00:13.293Z,101002.64
2017-10-25T14:02:40.747Z,101009.03
2017-10-25T14:05:09.176Z,101010.87
2017-10-25T14:07:36.661Z,101009.41
2017-10-25T14:10:04.975Z,101016.47
2017-10-25T14:12:32.496Z,101019.96
2017-10-25T14:14:59.930Z,101027.45
2017-10-25T14:17:27.445Z,101029.84
2017-10-25T14:19:54.967Z,101024.89
2017-10-25T14:22:22.461Z,101035.73
2017-10-25T14:24:49.908Z,101030.39
2017-10-25T14:27:29.086Z,101037.30
2017-10-25T14:29:56.619Z,101035.39
2017-10-25T14:32:24.196Z,101029.10
2017-10-25T14:34:51.644Z,101038.80
2017-10-25T14:37:19.162Z,101052.38
2017-10-25T14:39:46.602Z,101050.09
2017-10-25T14:42:14.120Z,101064.03
2017-10-25T14:44:41.589Z,101063.73
2017-10-25T14:47:09.144Z,101069.02
2017-10-25T14:49:36.594Z,101079.98
2017-10-25T14:52:04.067Z,101078.14
2017-10-25T14:54:31.517Z,101083.57
2017-10-25T14:56:59.044Z,101088.72
2017-10-25T14:59:26.492Z,101094.08
2017-10-25T15:01:53.927Z,101092.05
2017-10-25T15:04:21.404Z,101089.30
2017-10-25T15:06:48.859Z,101098.95
2017-10-25T15:09:16.331Z,101106.26
2017-10-25T15:11:43.897Z,101103.08
2017-10-25T15:14:11.379Z,101106.09
2017-10-25T15:16:38.843Z,101103.28
2017-10-25T15:19:06.302Z,101099.00
2017-10-25T15:21:33.756Z,101091.84
2017-10-25T15:24:01.272Z,101096.80
2017-10-25T15:26:28.845Z,101099.73
2017-10-25T15:28:56.393Z,101095.81
2017-10-25T15:31:23.840Z,101094.34
2017-10-25T15:33:51.457Z,101095.17
2017-10-25T15:36:18.968Z,101099.20
2017-10-25T15:38:46.435Z,101100.77
2017-10-25T15:41:13.875Z,101108.70
2017-10-25T15:43:41.441Z,101107.69
2017-10-25T15:46:08.997Z,101106.64
2017-10-25T15:48:36.555Z,101113.22
2017-10-25T15:51:04.004Z,101113.42
2017-10-25T15:53:31.450Z,101121.44
2017-10-25T15:55:58.928Z,101110.55
2017-10-25T15:58:26.371Z,101120.41
2017-10-25T16:00:53.847Z,101125.48
2017-10-25T16:03:21.278Z,101122.31
2017-10-25T16:05:48.751Z,101126.77
2017-10-25T16:08:16.190Z,101132.52
2017-10-25T16:10:43.677Z,101144.15
2017-10-25T16:13:11.132Z,101140.38
2017-10-25T16:15:38.613Z,101151.23
2017-10-25T16:18:06.140Z,101143.78
2017-10-25T16:20:33.615Z,101146.91
2017-10-25T16:23:01.147Z,101134.03
2017-10-25T16:25:28.659Z,101137.98
2017-10-25T16:27:56.098Z,101146.58
2017-10-25T16:30:23.625Z,101153.72
2017-10-25T16:32:52.996Z,101154.59
2017-10-25T16:35:20.543Z,101157.41
2017-10-25T16:37:48.001Z,101160.88
2017-10-25T16:40:15.484Z,101163.81
2017-10-25T16:42:42.939Z,101169.00
2017-10-25T16:45:10.406Z,101170.46
2017-10-25T16:47:37.855Z,101172.80
2017-10-25T16:50:05.425Z,101180.13
2017-10-25T16:52:32.869Z,101167.91
2017-10-25T16:55:00.360Z,101175.98
2017-10-25T16:57:27.813Z,101179.41
2017-10-25T16:59:55.292Z,101189.29
2017-10-25T17:02:22.812Z,101190.48
2017-10-25T17:04:50.263Z,101193.61
2017-10-25T17:07:17.769Z,101188.58
2017-10-25T17:09:45.233Z,101199.90
2017-10-25T17:12:12.807Z,101196.29
2017-10-25T17:14:40.264Z,101208.75
2017-10-25T17:17:07.759Z,101216.27
2017-10-25T17:19:35.316Z,101220.33
2017-10-25T17:22:02.806Z,101219.49
2017-10-25T17:24:30.260Z,101223.59
2017-10-25T17:26:57.734Z,101213.31
2017-10-25T17:29:25.189Z,101223.30
2017-10-25T17:31:52.684Z,101225.67
2017-10-25T17:34:20.156Z,101228.61
2017-10-25T17:36:47.628Z,101230.61
2017-10-25T17:39:15.083Z,101233.36
2017-10-25T17:41:42.564Z,101230.71
2017-10-25T17:44:10.059Z,101227.59
2017-10-25T17:46:37.529Z,101233.09
2017-10-25T17:49:04.973Z,101231.88
2017-10-25T17:51:32.571Z,101233.07
2017-10-25T17:54:00.010Z,101237.97
2017-10-25T17:56:27.462Z,101240.05
2017-10-25T17:58:54.922Z,101238.15
2017-10-25T18:01:22.368Z,101249.95
2017-10-25T18:03:49.836Z,101261.02
2017-10-25T18:06:17.285Z,101251.97
2017-10-25T18:08:44.759Z,101259.59
2017-10-25T18:11:12.195Z,101256.36
2017-10-25T18:13:39.664Z,101257.31
2017-10-25T18:16:07.130Z,101258.26
2017-10-25T18:18:34.590Z,101262.53
2017-10-25T18:21:02.041Z,101260.47
2017-10-25T18:23:29.516Z,101257.09
2017-10-25T18:25:57.049Z,101266.91
2017-10-25T18:28:24.607Z,101267.27
2017-10-25T18:30:52.067Z,101270.00
2017-10-25T18:33:19.681Z,101280.95
2017-10-25T18:35:47.131Z,101284.87
2017-10-25T18:38:14.599Z,101280.79
2017-10-25T18:40:42.096Z,101284.84
2017-10-25T18:43:09.579Z,101283.88
2017-10-25T18:48:29.257Z,101288.20
2017-10-25T18:50:56.801Z,101295.06
2017-10-25T18:53:24.262Z,101286.53
2017-10-25T18:55:51.819Z,101289.00
2017-10-25T18:58:19.371Z,101286.75
2017-10-25T19:00:46.809Z,101295.58
2017-10-25T19:03:14.284Z,101290.80
2017-10-25T19:05:42.207Z,101296.23
2017-10-25T19:08:09.713Z,101301.51
2017-10-25T19:10:37.153Z,101303.30
2017-10-25T19:13:04.789Z,101308.45
2017-10-25T19:15:32.303Z,101306.27
2017-10-25T19:17:59.845Z,101301.72
2017-10-25T19:20:27.404Z,101307.21
2017-10-25T19:22:54.964Z,101297.84
2017-10-25T19:25:22.444Z,101303.53
2017-10-25T19:27:49.891Z,101307.01
2017-10-25T19:30:17.436Z,101308.12
2017-10-25T19:32:44.892Z,101307.03
2017-10-25T19:35:12.367Z,101300.89
2017-10-25T19:37:39.909Z,101305.85
2017-10-25T19:40:07.466Z,101304.00
2017-10-25T19:42:35.025Z,101311.39
2017-10-25T19:45:02.565Z,101311.26
2017-10-25T19:47:29.998Z,101306.33
2017-10-25T19:49:57.499Z,101313.42
2017-10-25T19:52:25.052Z,101309.36
2017-10-25T19:54:52.575Z,101310.68
2017-10-25T19:57:20.071Z,101312.91
2017-10-25T19:59:47.533Z,101313.58
2017-10-25T20:02:15.086Z,101319.56
2017-10-25T20:04:42.560Z,101311.06
2017-10-25T20:07:10.015Z,101316.78
2017-10-25T20:09:37.489Z,101315.16
2017-10-25T20:12:04.953Z,101315.53
2017-10-25T20:14:32.424Z,101317.88
2017-10-25T20:16:59.871Z,101322.59
2017-10-25T20:19:27.348Z,101341.23
2017-10-25T20:21:55.075Z,101341.28
2017-10-25T20:24:22.563Z,101343.11
2017-10-25T20:26:50.051Z,101337.34
2017-10-25T20:29:17.502Z,101344.75
2017-10-25T20:31:44.976Z,101340.57
2017-10-25T20:34:12.459Z,101349.84
2017-10-25T20:36:39.928Z,101352.70
2017-10-25T20:39:07.380Z,101355.16
2017-10-25T20:41:34.886Z,101351.66
2017-10-25T20:44:02.412Z,101355.55
2017-10-25T20:46:29.879Z,101354.79
2017-10-25T20:48:57.331Z,101356.59
2017-10-25T20:51:24.808Z,101357.54
2017-10-25T20:53:52.289Z,101361.63
2017-10-25T20:56:19.760Z,101358.67
2017-10-25T20:58:47.198Z,101364.86
2017-10-25T21:01:14.667Z,101373.13
2017-10-25T21:03:42.216Z,101373.70
2017-10-25T21:06:09.796Z,101379.03
2017-10-25T21:08:37.245Z,101383.16
2017-10-25T21:11:05.564Z,101383.06
2017-10-25T21:13:33.424Z,101378.45
2017-10-25T21:16:01.032Z,101387.38
2017-10-25T21:18:28.589Z,101384.25
2017-10-25T21:20:56.079Z,101387.41
2017-10-25T21:23:23.530Z,101381.39
2017-10-25T21:25:51.007Z,101373.00
2017-10-25T21:28:18.453Z,101377.48
2017-10-25T21:30:45.924Z,101370.45
2017-10-25T21:33:13.362Z,101369.10
2017-10-25T21:35:40.847Z,101366.13
2017-10-25T21:38:08.348Z,101365.64
2017-10-25T21:40:35.904Z,101379.14
2017-10-25T21:43:03.352Z,101376.97
2017-10-25T21:45:30.824Z,101375.92
2017-10-25T21:47:58.254Z,101385.58
2017-10-25T21:50:25.783Z,101380.77
2017-10-25T21:52:53.237Z,101389.40
2017-10-25T21:55:20.704Z,101373.09
2017-10-25T21:57:48.176Z,101379.22
2017-10-25T22:00:15.613Z,101382.52
2017-10-25T22:02:43.114Z,101380.61
2017-10-25T22:05:10.567Z,101381.42
2017-10-25T22:07:38.037Z,101376.91
2017-10-25T22:10:05.474Z,101377.70
2017-10-25T22:12:32.951Z,101388.28
2017-10-25T22:15:00.500Z,101388.98
2017-10-25T22:17:28.058Z,101392.25
2017-10-25T22:19:55.524Z,101391.03
2017-10-25T22:22:23.028Z,101385.63
2017-10-25T22:24:50.470Z,101386.84
2017-10-25T22:27:17.940Z,101383.63
2017-10-25T22:29:45.396Z,101381.43
2017-10-25T22:32:12.864Z,101387.11
2017-10-25T22:34:40.361Z,101378.38
2017-10-25T22:37:07.849Z,101375.39
2017-10-25T22:39:35.286Z,101373.21
2017-10-25T22:42:02.828Z,101376.00
2017-10-25T22:44:30.389Z,101377.48
2017-10-25T22:46:57.855Z,101377.88
2017-10-25T22:49:25.316Z,101382.30
2017-10-25T22:51:52.792Z,101377.94
2017-10-25T22:54:20.316Z,101378.54
2017-10-25T22:56:47.803Z,101391.28
2017-10-25T22:59:15.264Z,101387.72
2017-10-25T23:01:42.722Z,101375.66
2017-10-25T23:04:10.168Z,101375.79
2017-10-25T23:06:37.714Z,101382.83
2017-10-25T23:09:05.169Z,101377.97
2017-10-25T23:11:32.615Z,101377.92
2017-10-25T23:14:00.132Z,101374.89
2017-10-25T23:16:27.591Z,101373.61
2017-10-25T23:18:55.085Z,101376.41
2017-10-25T23:21:22.543Z,101376.58
2017-10-25T23:23:50.002Z,101379.69
2017-10-25T23:26:17.453Z,101380.14
2017-10-25T23:28:44.924Z,101372.19
2017-10-25T23:31:12.376Z,101376.63
2017-10-25T23:33:39.925Z,101382.99
2017-10-25T23:36:07.357Z,101381.09
2017-10-25T23:38:34.814Z,101389.05
2017-10-25T23:41:02.281Z,101383.38
2017-10-25T23:43:29.805Z,101380.42
2017-10-25T23:45:57.291Z,101381.88
2017-10-25T23:48:24.743Z,101380.91
2017-10-25T23:50:52.203Z,101381.89
2017-10-25T23:53:19.643Z,101380.64
2017-10-25T23:55:47.118Z,101391.59
2017-10-25T23:58:14.575Z,101392.19
